| time (UTC) | temp C | wind direction | speed KPH | gust KPH | rain 1hr cm | rain 24hr cm | rain mn cm | humidity % | barometer mb |
| 20260509213058 | 11 | 75 | 4.8 | 12.9 | 0.00 | 0.84 | 0.79 | 87 | 1007.8 |
| 20260509212548 | 11 | 321 | 3.2 | 9.7 | 0.00 | 0.84 | 0.79 | 87 | 1007.8 |
| 20260509212048 | 12 | 0 | 1.6 | 9.7 | 0.00 | 0.84 | 0.79 | 87 | 1007.9 |
| 20260509211554 | 11 | 300 | 3.2 | 6.4 | 0.00 | 0.84 | 0.79 | 88 | 1007.9 |
| 20260509211048 | 11 | 0 | 1.6 | 6.4 | 0.00 | 0.84 | 0.79 | 88 | 1008.1 |
| 20260509210548 | 12 | 292 | 1.6 | 12.9 | 0.00 | 0.84 | 0.79 | 88 | 1008.0 |
| 20260509210055 | 12 | 313 | 3.2 | 12.9 | 0.00 | 0.84 | 0.79 | 88 | 1008.0 |
| 20260509205549 | 12 | 346 | 4.8 | 11.3 | 0.00 | 0.84 | 0.79 | 88 | 1008.0 |
| 20260509205047 | 12 | 301 | 3.2 | 9.7 | 0.00 | 0.84 | 0.79 | 88 | 1008.0 |
| 20260509204559 | 11 | 331 | 1.6 | 8.0 | 0.00 | 0.84 | 0.79 | 88 | 1008.2 |
| 20260509204048 | 11 | 336 | 1.6 | 6.4 | 0.00 | 0.84 | 0.79 | 88 | 1008.2 |
| 20260509203548 | 11 | 334 | 1.6 | 4.8 | 0.00 | 0.84 | 0.79 | 89 | 1008.2 |
| 20260509203054 | 11 | 322 | 0.0 | 6.4 | 0.00 | 0.84 | 0.79 | 90 | 1008.3 |
| 20260509202550 | 11 | 335 | 0.0 | 9.7 | 0.00 | 0.84 | 0.79 | 89 | 1008.4 |
| 20260509202049 | 11 | 0 | 1.6 | 9.7 | 0.00 | 0.84 | 0.79 | 89 | 1008.3 |
| 20260509201550 | 11 | 278 | 1.6 | 9.7 | 0.00 | 0.84 | 0.79 | 89 | 1008.3 |
| 20260509201047 | 11 | 348 | 3.2 | 9.7 | 0.00 | 0.84 | 0.79 | 89 | 1008.3 |
| 20260509200547 | 11 | 281 | 1.6 | 8.0 | 0.00 | 0.84 | 0.79 | 89 | 1008.1 |
| 20260509200053 | 11 | 0 | 0.0 | 9.7 | 0.00 | 0.84 | 0.79 | 90 | 1008.1 |
| 20260509195549 | 11 | 307 | 3.2 | 9.7 | 0.03 | 0.86 | 0.79 | 89 | 1008.1 |
| 20260509195051 | 11 | 0 | 0.0 | 12.9 | 0.03 | 0.86 | 0.79 | 90 | 1008.3 |
| 20260509194557 | 11 | 338 | 3.2 | 12.9 | 0.03 | 0.86 | 0.79 | 88 | 1008.3 |
| 20260509194048 | 11 | 319 | 1.6 | 8.0 | 0.05 | 0.86 | 0.79 | 89 | 1008.5 |
| 20260509193548 | 11 | 0 | 3.2 | 8.0 | 0.05 | 0.86 | 0.79 | 89 | 1008.6 |
| 20260509193056 | 10 | 294 | 1.6 | 14.5 | 0.05 | 0.86 | 0.79 | 90 | 1008.4 |
| 20260509192551 | 10 | 321 | 3.2 | 14.5 | 0.05 | 0.86 | 0.79 | 90 | 1008.7 |
| 20260509192047 | 10 | 314 | 4.8 | 14.5 | 0.08 | 0.86 | 0.79 | 90 | 1008.7 |
| 20260509191600 | 10 | 22 | 1.6 | 6.4 | 0.08 | 0.86 | 0.79 | 91 | 1008.9 |
| 20260509191053 | 10 | 330 | 0.0 | 9.7 | 0.08 | 0.86 | 0.79 | 91 | 1008.9 |
| 20260509190550 | 10 | 304 | 0.0 | 9.7 | 0.10 | 0.86 | 0.79 | 91 | 1008.9 |
| 20260509190057 | 10 | 352 | 4.8 | 9.7 | 0.10 | 0.86 | 0.79 | 90 | 1008.9 |
| 20260509185547 | 10 | 304 | 1.6 | 11.3 | 0.10 | 0.84 | 0.76 | 90 | 1009.1 |
| 20260509185048 | 10 | 345 | 3.2 | 12.9 | 0.10 | 0.84 | 0.76 | 90 | 1009.1 |
| 20260509184550 | 10 | 319 | 4.8 | 16.1 | 0.13 | 0.84 | 0.76 | 90 | 1009.1 |
| 20260509184048 | 10 | 288 | 4.8 | 16.1 | 0.10 | 0.81 | 0.74 | 91 | 1009.1 |
| 20260509183548 | 10 | 316 | 1.6 | 9.7 | 0.13 | 0.81 | 0.74 | 91 | 1009.1 |
| 20260509183056 | 10 | 301 | 0.0 | 9.7 | 0.13 | 0.81 | 0.74 | 91 | 1009.2 |
| 20260509182548 | 10 | 330 | 1.6 | 17.7 | 0.13 | 0.81 | 0.74 | 91 | 1009.2 |
| 20260509182047 | 10 | 308 | 1.6 | 17.7 | 0.13 | 0.79 | 0.71 | 91 | 1009.2 |
| 20260509181602 | 10 | 303 | 4.8 | 14.5 | 0.13 | 0.79 | 0.71 | 90 | 1009.0 |
| 20260509181048 | 10 | 295 | 1.6 | 14.5 | 0.10 | 0.76 | 0.69 | 91 | 1009.2 |
| 20260509180548 | 10 | 359 | 1.6 | 14.5 | 0.10 | 0.76 | 0.69 | 91 | 1009.2 |
| 20260509180058 | 10 | 321 | 0.0 | 12.9 | 0.10 | 0.76 | 0.69 | 91 | 1009.0 |
| 20260509175547 | 10 | 0 | 1.6 | 12.9 | 0.08 | 0.74 | 0.66 | 91 | 1009.1 |
| 20260509175049 | 10 | 3 | 1.6 | 8.0 | 0.10 | 0.74 | 0.66 | 91 | 1009.1 |
| 20260509174602 | 10 | 334 | 1.6 | 8.0 | 0.08 | 0.71 | 0.64 | 91 | 1009.2 |
| 20260509174049 | 10 | 300 | 1.6 | 4.8 | 0.10 | 0.71 | 0.64 | 90 | 1009.3 |
| 20260509173547 | 10 | 320 | 1.6 | 12.9 | 0.08 | 0.69 | 0.61 | 90 | 1009.1 |
| 20260509173107 | 10 | 326 | 3.2 | 12.9 | 0.10 | 0.69 | 0.61 | 90 | 1009.2 |
| 20260509172548 | 10 | 266 | 4.8 | 24.1 | 0.10 | 0.69 | 0.61 | 90 | 1009.2 |
| 20260509172048 | 10 | 328 | 3.2 | 24.1 | 0.10 | 0.66 | 0.58 | 90 | 1009.1 |
| 20260509171601 | 10 | 298 | 3.2 | 12.9 | 0.13 | 0.66 | 0.58 | 90 | 1009.0 |
| 20260509171047 | 10 | 314 | 0.0 | 12.9 | 0.13 | 0.66 | 0.58 | 91 | 1009.1 |
| 20260509170551 | 10 | 358 | 1.6 | 11.3 | 0.15 | 0.66 | 0.58 | 91 | 1009.1 |
| 20260509170055 | 10 | 301 | 1.6 | 9.7 | 0.15 | 0.66 | 0.58 | 91 | 1009.1 |
| 20260509165547 | 10 | 360 | 1.6 | 11.3 | 0.13 | 0.69 | 0.56 | 91 | 1009.0 |
| 20260509165047 | 10 | 47 | 1.6 | 14.5 | 0.15 | 0.69 | 0.56 | 91 | 1009.1 |
| 20260509164554 | 10 | 331 | 4.8 | 14.5 | 0.15 | 0.69 | 0.56 | 91 | 1009.1 |
| 20260509164047 | 10 | 309 | 1.6 | 8.0 | 0.13 | 0.66 | 0.53 | 91 | 1009.0 |
| 20260509163547 | 10 | 305 | 3.2 | 8.0 | 0.13 | 0.66 | 0.53 | 91 | 1009.1 |
| 20260509163103 | 10 | 325 | 1.6 | 6.4 | 0.10 | 0.64 | 0.51 | 91 | 1009.2 |
| 20260509162548 | 10 | 332 | 0.0 | 12.9 | 0.10 | 0.64 | 0.51 | 90 | 1009.2 |
| 20260509162049 | 10 | 295 | 4.8 | 12.9 | 0.08 | 0.61 | 0.48 | 90 | 1009.4 |
| 20260509161552 | 10 | 309 | 1.6 | 6.4 | 0.08 | 0.58 | 0.46 | 91 | 1009.3 |
| 20260509161048 | 10 | 302 | 1.6 | 6.4 | 0.08 | 0.58 | 0.46 | 90 | 1009.5 |
| 20260509160548 | 10 | 300 | 1.6 | 4.8 | 0.05 | 0.56 | 0.43 | 90 | 1009.6 |
| 20260509160054 | 10 | 0 | 0.0 | 4.8 | 0.05 | 0.56 | 0.43 | 91 | 1009.4 |
| 20260509155548 | 10 | 314 | 1.6 | 4.8 | 0.05 | 0.56 | 0.43 | 90 | 1009.5 |
| 20260509155048 | 10 | 322 | 0.0 | 6.4 | 0.05 | 0.53 | 0.41 | 91 | 1009.6 |
| 20260509154601 | 10 | 313 | 1.6 | 6.4 | 0.05 | 0.53 | 0.41 | 90 | 1009.5 |
| 20260509154047 | 10 | 321 | 1.6 | 6.4 | 0.08 | 0.53 | 0.41 | 90 | 1009.6 |
| 20260509153548 | 10 | 310 | 1.6 | 8.0 | 0.08 | 0.53 | 0.41 | 90 | 1009.6 |
| 20260509153049 | 10 | 338 | 1.6 | 12.9 | 0.08 | 0.53 | 0.41 | 90 | 1009.6 |
| 20260509152547 | 10 | 279 | 3.2 | 12.9 | 0.10 | 0.53 | 0.41 | 90 | 1009.7 |
| 20260509152048 | 10 | 300 | 4.8 | 12.9 | 0.10 | 0.53 | 0.41 | 89 | 1009.7 |
| 20260509151556 | 10 | 0 | 1.6 | 9.7 | 0.10 | 0.51 | 0.38 | 90 | 1009.8 |
| 20260509151051 | 10 | 321 | 1.6 | 4.8 | 0.10 | 0.51 | 0.38 | 90 | 1009.6 |
| 20260509150547 | 10 | 329 | 0.0 | 4.8 | 0.10 | 0.51 | 0.38 | 90 | 1009.7 |
| 20260509150055 | 10 | 281 | 0.0 | 3.2 | 0.13 | 0.51 | 0.38 | 91 | 1009.8 |
| 20260509145548 | 10 | 322 | 0.0 | 3.2 | 0.10 | 0.48 | 0.36 | 91 | 1009.9 |
| 20260509145047 | 10 | 312 | 0.0 | 3.2 | 0.10 | 0.48 | 0.36 | 91 | 1009.9 |
| 20260509144609 | 10 | 0 | 0.0 | 3.2 | 0.13 | 0.48 | 0.36 | 91 | 1009.8 |
| 20260509144048 | 10 | 331 | 0.0 | 6.4 | 0.10 | 0.46 | 0.33 | 91 | 1009.9 |
| 20260509143548 | 10 | 331 | 0.0 | 6.4 | 0.10 | 0.46 | 0.33 | 91 | 1009.9 |
| 20260509143053 | 10 | 0 | 0.0 | 4.8 | 0.13 | 0.46 | 0.33 | 92 | 1009.9 |
| 20260509142547 | 9 | 0 | 0.0 | 6.4 | 0.10 | 0.43 | 0.30 | 91 | 1009.9 |
| 20260509142047 | 9 | 349 | 0.0 | 6.4 | 0.10 | 0.43 | 0.30 | 91 | 1010.0 |
| 20260509141555 | 9 | 0 | 1.6 | 6.4 | 0.10 | 0.41 | 0.28 | 91 | 1010.1 |
| 20260509141048 | 9 | 314 | 0.0 | 3.2 | 0.10 | 0.41 | 0.28 | 92 | 1010.0 |
| 20260509140547 | 9 | 334 | 0.0 | 3.2 | 0.10 | 0.41 | 0.28 | 92 | 1009.9 |
| 20260509140107 | 9 | 326 | 0.0 | 4.8 | 0.08 | 0.38 | 0.25 | 93 | 1009.9 |
| 20260509135547 | 9 | 0 | 0.0 | 4.8 | 0.08 | 0.38 | 0.25 | 92 | 1009.9 |
| 20260509135048 | 9 | 326 | 0.0 | 4.8 | 0.10 | 0.38 | 0.25 | 93 | 1009.9 |
| 20260509134555 | 9 | 0 | 0.0 | 4.8 | 0.08 | 0.36 | 0.23 | 93 | 1009.8 |
| 20260509134049 | 9 | 302 | 1.6 | 4.8 | 0.08 | 0.36 | 0.23 | 93 | 1009.9 |
| 20260509133549 | 9 | 11 | 0.0 | 1.6 | 0.08 | 0.36 | 0.23 | 94 | 1010.0 |
| 20260509133102 | 9 | 0 | 0.0 | 0.0 | 0.05 | 0.33 | 0.20 | 94 | 1009.9 |
| 20260509132547 | 9 | 0 | 0.0 | 0.0 | 0.08 | 0.33 | 0.20 | 94 | 1009.9 |
| 20260509132047 | 9 | 0 | 0.0 | 0.0 | 0.08 | 0.33 | 0.20 | 94 | 1009.9 |
| 20260509131556 | 9 | 0 | 0.0 | 0.0 | 0.05 | 0.30 | 0.18 | 94 | 1009.8 |
| 20260509131052 | 9 | 0 | 0.0 | 0.0 | 0.05 | 0.30 | 0.18 | 94 | 1009.8 |
| 20260509130548 | 9 | 0 | 0.0 | 0.0 | 0.05 | 0.30 | 0.18 | 94 | 1009.7 |
| 20260509130101 | 8 | 0 | 0.0 | 0.0 | 0.08 | 0.30 | 0.18 | 94 | 1009.7 |
| 20260509125548 | 8 | 0 | 0.0 | 0.0 | 0.08 | 0.30 | 0.18 | 94 | 1009.6 |
| 20260509125047 | 8 | 0 | 0.0 | 1.6 | 0.05 | 0.28 | 0.15 | 94 | 1009.6 |
| 20260509124604 | 8 | 0 | 0.0 | 1.6 | 0.05 | 0.28 | 0.15 | 94 | 1009.6 |
| 20260509124047 | 8 | 0 | 0.0 | 0.0 | 0.05 | 0.28 | 0.15 | 94 | 1009.6 |
| 20260509123547 | 8 | 0 | 0.0 | 0.0 | 0.05 | 0.28 | 0.15 | 94 | 1009.8 |
| 20260509123057 | 8 | 0 | 0.0 | 0.0 | 0.05 | 0.28 | 0.15 | 94 | 1009.7 |
| 20260509122549 | 8 | 0 | 0.0 | 0.0 | 0.03 | 0.25 | 0.13 | 94 | 1009.9 |
| 20260509122048 | 8 | 0 | 0.0 | 0.0 | 0.03 | 0.25 | 0.13 | 94 | 1009.8 |
| 20260509121601 | 8 | 0 | 0.0 | 0.0 | 0.03 | 0.25 | 0.13 | 94 | 1009.9 |
| 20260509121049 | 8 | 0 | 0.0 | 0.0 | 0.03 | 0.25 | 0.13 | 94 | 1009.9 |
| 20260509120550 | 8 | 0 | 0.0 | 0.0 | 0.03 | 0.25 | 0.13 | 94 | 1009.9 |
| 20260509120051 | 8 | 0 | 0.0 | 0.0 | 0.00 | 0.23 | 0.10 | 94 | 1009.8 |
| 20260509115547 | 8 | 0 | 0.0 | 0.0 | 0.00 | 0.23 | 0.10 | 94 | 1010.0 |
| 20260509115047 | 8 | 0 | 0.0 | 0.0 | 0.00 | 0.23 | 0.10 | 94 | 1009.8 |
| 20260509114552 | 8 | 0 | 0.0 | 0.0 | 0.00 | 0.23 | 0.10 | 94 | 1009.8 |
| 20260509114047 | 8 | 0 | 0.0 | 0.0 | 0.00 | 0.23 | 0.10 | 94 | 1009.9 |
| 20260509113547 | 7 | 0 | 0.0 | 0.0 | 0.00 | 0.23 | 0.10 | 94 | 1009.9 |
| 20260509113057 | 7 | 0 | 0.0 | 0.0 | 0.00 | 0.23 | 0.10 | 94 | 1010.0 |
| 20260509112552 | 7 | 0 | 0.0 | 0.0 | 0.00 | 0.23 | 0.10 | 94 | 1009.9 |
| 20260509112048 | 7 | 0 | 0.0 | 0.0 | 0.00 | 0.23 | 0.10 | 94 | 1009.9 |
| 20260509111559 | 7 | 0 | 0.0 | 1.6 | 0.00 | 0.23 | 0.10 | 94 | 1010.0 |
| 20260509111048 | 7 | 0 | 0.0 | 1.6 | 0.00 | 0.23 | 0.10 | 94 | 1009.9 |
| 20260509110549 | 7 | 0 | 0.0 | 1.6 | 0.00 | 0.23 | 0.10 | 94 | 1009.9 |
| 20260509110052 | 7 | 318 | 0.0 | 0.0 | 0.00 | 0.23 | 0.10 | 94 | 1009.9 |
| 20260509105550 | 7 | 0 | 0.0 | 0.0 | 0.00 | 0.23 | 0.10 | 94 | 1010.0 |
| 20260509105048 | 7 | 0 | 0.0 | 0.0 | 0.00 | 0.23 | 0.10 | 94 | 1010.0 |
| 20260509104553 | 7 | 0 | 0.0 | 0.0 | 0.00 | 0.23 | 0.10 | 94 | 1010.0 |
| 20260509104048 | 7 | 0 | 0.0 | 0.0 | 0.00 | 0.23 | 0.10 | 94 | 1010.0 |
| 20260509103547 | 7 | 0 | 0.0 | 0.0 | 0.00 | 0.23 | 0.10 | 94 | 1009.9 |
| 20260509103052 | 7 | 0 | 0.0 | 0.0 | 0.00 | 0.23 | 0.10 | 94 | 1010.0 |
| 20260509102547 | 7 | 0 | 0.0 | 0.0 | 0.00 | 0.23 | 0.10 | 94 | 1009.8 |
| 20260509102048 | 7 | 0 | 0.0 | 0.0 | 0.00 | 0.23 | 0.10 | 94 | 1010.0 |
| 20260509101554 | 7 | 0 | 0.0 | 0.0 | 0.00 | 0.23 | 0.10 | 94 | 1010.1 |
| 20260509101047 | 7 | 0 | 0.0 | 0.0 | 0.00 | 0.23 | 0.10 | 94 | 1010.1 |
| 20260509100548 | 7 | 0 | 0.0 | 0.0 | 0.00 | 0.23 | 0.10 | 94 | 1010.1 |
| 20260509100054 | 7 | 0 | 0.0 | 0.0 | 0.00 | 0.23 | 0.10 | 94 | 1010.2 |
| 20260509095547 | 7 | 0 | 0.0 | 0.0 | 0.00 | 0.23 | 0.10 | 94 | 1010.3 |
| 20260509095047 | 7 | 0 | 0.0 | 0.0 | 0.00 | 0.23 | 0.10 | 94 | 1010.4 |
| 20260509094552 | 7 | 0 | 0.0 | 0.0 | 0.00 | 0.23 | 0.10 | 94 | 1010.4 |
| 20260509094048 | 7 | 0 | 0.0 | 0.0 | 0.00 | 0.23 | 0.10 | 94 | 1010.2 |
| 20260509093548 | 7 | 0 | 0.0 | 0.0 | 0.00 | 0.23 | 0.10 | 94 | 1010.3 |
| 20260509093052 | 7 | 0 | 0.0 | 0.0 | 0.00 | 0.23 | 0.10 | 94 | 1010.1 |
| 20260509092549 | 7 | 0 | 0.0 | 0.0 | 0.00 | 0.23 | 0.10 | 94 | 1010.2 |
| 20260509092047 | 7 | 0 | 0.0 | 0.0 | 0.00 | 0.23 | 0.10 | 94 | 1010.1 |
| 20260509091553 | 7 | 0 | 0.0 | 0.0 | 0.00 | 0.23 | 0.10 | 94 | 1010.1 |
| 20260509091048 | 7 | 0 | 0.0 | 0.0 | 0.00 | 0.23 | 0.10 | 94 | 1010.1 |
| 20260509090548 | 7 | 0 | 0.0 | 0.0 | 0.00 | 0.23 | 0.10 | 94 | 1010.0 |
| 20260509090108 | 7 | 0 | 0.0 | 0.0 | 0.00 | 0.23 | 0.10 | 94 | 1010.0 |
| 20260509085547 | 7 | 0 | 0.0 | 0.0 | 0.00 | 0.23 | 0.10 | 93 | 1010.1 |
| 20260509085047 | 7 | 0 | 0.0 | 0.0 | 0.00 | 0.23 | 0.10 | 93 | 1010.1 |
| 20260509084558 | 7 | 0 | 0.0 | 0.0 | 0.00 | 0.23 | 0.10 | 93 | 1010.3 |
| 20260509084047 | 7 | 0 | 0.0 | 0.0 | 0.00 | 0.23 | 0.10 | 93 | 1010.3 |
| 20260509083549 | 7 | 0 | 0.0 | 0.0 | 0.00 | 0.23 | 0.10 | 93 | 1010.4 |
| 20260509083059 | 7 | 0 | 0.0 | 0.0 | 0.00 | 0.23 | 0.10 | 93 | 1010.4 |
| 20260509082548 | 7 | 0 | 0.0 | 0.0 | 0.03 | 0.23 | 0.10 | 93 | 1010.5 |
| 20260509082051 | 7 | 0 | 0.0 | 0.0 | 0.03 | 0.23 | 0.10 | 93 | 1010.5 |
| 20260509081549 | 7 | 0 | 0.0 | 0.0 | 0.03 | 0.23 | 0.10 | 93 | 1010.6 |
| 20260509081048 | 7 | 0 | 0.0 | 0.0 | 0.03 | 0.23 | 0.10 | 93 | 1010.6 |
| 20260509080548 | 7 | 0 | 0.0 | 0.0 | 0.03 | 0.23 | 0.10 | 93 | 1010.8 |
| 20260509080053 | 7 | 0 | 0.0 | 0.0 | 0.05 | 0.23 | 0.10 | 93 | 1010.7 |
| 20260509075548 | 7 | 0 | 0.0 | 0.0 | 0.05 | 0.23 | 0.10 | 93 | 1010.7 |
| 20260509075047 | 7 | 0 | 0.0 | 0.0 | 0.05 | 0.23 | 0.10 | 93 | 1010.7 |
| 20260509074550 | 7 | 0 | 0.0 | 0.0 | 0.05 | 0.23 | 0.10 | 93 | 1010.7 |
| 20260509074050 | 7 | 0 | 0.0 | 0.0 | 0.05 | 0.23 | 0.10 | 93 | 1010.8 |
| 20260509073547 | 7 | 0 | 0.0 | 0.0 | 0.08 | 0.23 | 0.10 | 93 | 1010.7 |
| 20260509073053 | 7 | 0 | 0.0 | 0.0 | 0.05 | 0.20 | 0.08 | 93 | 1010.6 |
| 20260509072550 | 7 | 0 | 0.0 | 0.0 | 0.05 | 0.20 | 0.08 | 93 | 1010.6 |
| 20260509072049 | 7 | 0 | 0.0 | 0.0 | 0.05 | 0.20 | 0.08 | 93 | 1010.6 |
| 20260509071555 | 7 | 0 | 0.0 | 0.0 | 0.05 | 0.20 | 0.08 | 93 | 1010.9 |
| 20260509071047 | 7 | 0 | 0.0 | 0.0 | 0.05 | 0.20 | 0.08 | 93 | 1011.1 |
| 20260509070547 | 7 | 0 | 0.0 | 0.0 | 0.05 | 0.20 | 0.08 | 93 | 1011.1 |
| 20260509070050 | 7 | 0 | 0.0 | 0.0 | 0.03 | 0.18 | 0.05 | 93 | 1010.9 |
| 20260509065548 | 7 | 0 | 0.0 | 0.0 | 0.03 | 0.18 | 0.05 | 93 | 1010.8 |
| 20260509065048 | 7 | 0 | 0.0 | 0.0 | 0.05 | 0.18 | 0.05 | 93 | 1010.9 |
| 20260509064549 | 7 | 0 | 0.0 | 0.0 | 0.05 | 0.18 | 0.05 | 93 | 1010.9 |
| 20260509064048 | 7 | 0 | 0.0 | 0.0 | 0.05 | 0.18 | 0.05 | 93 | 1011.0 |
| 20260509063547 | 7 | 0 | 0.0 | 0.0 | 0.03 | 0.15 | 0.03 | 93 | 1011.0 |
| 20260509063102 | 7 | 0 | 0.0 | 0.0 | 0.03 | 0.15 | 0.03 | 93 | 1011.0 |
| 20260509062547 | 7 | 0 | 0.0 | 1.6 | 0.03 | 0.15 | 0.03 | 93 | 1011.3 |
| 20260509062047 | 7 | 0 | 0.0 | 1.6 | 0.03 | 0.15 | 0.03 | 93 | 1011.4 |
| 20260509061554 | 7 | 0 | 0.0 | 1.6 | 0.03 | 0.15 | 0.03 | 93 | 1011.6 |
| 20260509061048 | 7 | 0 | 0.0 | 1.6 | 0.03 | 0.15 | 0.03 | 93 | 1011.5 |
| 20260509060548 | 7 | 0 | 0.0 | 0.0 | 0.03 | 0.15 | 0.03 | 93 | 1011.7 |
| 20260509060058 | 7 | 0 | 0.0 | 0.0 | 0.03 | 0.15 | 0.03 | 93 | 1011.6 |
| 20260509055547 | 7 | 311 | 0.0 | 0.0 | 0.03 | 0.15 | 0.03 | 93 | 1011.7 |
| 20260509055047 | 7 | 0 | 0.0 | 0.0 | 0.00 | 0.13 | 0.00 | 93 | 1011.7 |
| 20260509054606 | 7 | 0 | 0.0 | 0.0 | 0.00 | 0.13 | 0.00 | 93 | 1011.5 |
| 20260509054048 | 7 | 0 | 0.0 | 0.0 | 0.00 | 0.13 | 0.00 | 93 | 1011.4 |
| 20260509053548 | 7 | 0 | 0.0 | 0.0 | 0.00 | 0.13 | 0.00 | 93 | 1011.5 |
| 20260509053119 | 7 | 0 | 0.0 | 3.2 | 0.00 | 0.13 | 0.00 | 94 | 1011.5 |
| 20260509052548 | 7 | 0 | 0.0 | 3.2 | 0.00 | 0.13 | 0.00 | 93 | 1011.5 |
| 20260509052047 | 7 | 0 | 0.0 | 0.0 | 0.00 | 0.13 | 0.00 | 93 | 1011.4 |
| 20260509051550 | 7 | 0 | 0.0 | 0.0 | 0.00 | 0.13 | 0.00 | 93 | 1011.0 |
| 20260509051048 | 7 | 0 | 0.0 | 0.0 | 0.00 | 0.13 | 0.00 | 93 | 1011.0 |
| 20260509050549 | 7 | 0 | 0.0 | 0.0 | 0.00 | 0.13 | 0.00 | 93 | 1010.9 |
| 20260509050057 | 7 | 0 | 0.0 | 0.0 | 0.00 | 0.13 | 0.00 | 93 | 1010.7 |
| 20260509045548 | 7 | 0 | 0.0 | 0.0 | 0.00 | 0.20 | 0.00 | 93 | 1010.6 |
| 20260509045050 | 7 | 0 | 0.0 | 1.6 | 0.03 | 0.20 | 0.00 | 93 | 1010.8 |
| 20260509044554 | 7 | 0 | 0.0 | 1.6 | 0.03 | 0.20 | 0.00 | 93 | 1011.0 |
| 20260509044048 | 7 | 0 | 0.0 | 0.0 | 0.03 | 0.20 | 0.00 | 93 | 1011.1 |
| 20260509043547 | 7 | 0 | 0.0 | 0.0 | 0.03 | 0.20 | 0.00 | 93 | 1011.0 |
| 20260509043104 | 7 | 0 | 0.0 | 0.0 | 0.03 | 0.20 | 0.00 | 93 | 1010.9 |
| 20260509042552 | 7 | 0 | 0.0 | 0.0 | 0.03 | 0.20 | 0.00 | 93 | 1010.8 |
| 20260509042051 | 7 | 316 | 0.0 | 0.0 | 0.03 | 0.20 | 0.00 | 93 | 1010.9 |
| 20260509041602 | 6 | 0 | 0.0 | 0.0 | 0.03 | 0.20 | 0.00 | 93 | 1011.0 |
| 20260509041048 | 6 | 0 | 0.0 | 0.0 | 0.03 | 0.20 | 0.00 | 93 | 1011.1 |
| 20260509040551 | 6 | 0 | 0.0 | 0.0 | 0.03 | 0.20 | 0.00 | 93 | 1011.1 |
| 20260509040121 | 6 | 0 | 0.0 | 0.0 | 0.03 | 0.20 | 0.00 | 93 | 1011.1 |
| 20260509035547 | 6 | 0 | 0.0 | 0.0 | 0.03 | 0.33 | 0.20 | 93 | 1011.1 |
| 20260509035049 | 6 | 0 | 0.0 | 0.0 | 0.00 | 0.30 | 0.18 | 93 | 1011.3 |
| 20260509034604 | 6 | 0 | 0.0 | 0.0 | 0.00 | 0.30 | 0.18 | 93 | 1011.2 |
| 20260509034048 | 6 | 0 | 0.0 | 0.0 | 0.00 | 0.30 | 0.18 | 93 | 1011.4 |
| 20260509033550 | 6 | 0 | 0.0 | 0.0 | 0.00 | 0.30 | 0.18 | 93 | 1011.5 |
| 20260509033054 | 6 | 0 | 0.0 | 0.0 | 0.00 | 0.30 | 0.18 | 93 | 1011.3 |
| 20260509032549 | 5 | 0 | 0.0 | 0.0 | 0.00 | 0.30 | 0.18 | 93 | 1011.4 |
| 20260509032044 | 5 | 0 | 0.0 | 0.0 | 0.00 | 0.30 | 0.18 | 93 | 1011.3 |
| 20260509031605 | 5 | 0 | 0.0 | 0.0 | 0.00 | 0.30 | 0.18 | 92 | 1011.4 |
| 20260509031047 | 5 | 0 | 0.0 | 0.0 | 0.00 | 0.30 | 0.18 | 92 | 1011.5 |
| 20260509030842 | 5 | 0 | 0.0 | 0.0 | 0.00 | 0.30 | 0.18 | 92 | 1011.5 |
| 20260509030053 | 5 | 315 | 0.0 | 0.0 | 0.00 | 0.30 | 0.18 | 92 | 1011.6 |
| 20260509030036 | 5 | 0 | 0.0 | 0.0 | 0.00 | 0.30 | 0.18 | 92 | 1011.5 |
| 20260509025546 | 5 | 0 | 0.0 | 0.0 | 0.00 | 0.30 | 0.18 | 92 | 1011.5 |
| 20260509025219 | 5 | 0 | 0.0 | 0.0 | 0.00 | 0.30 | 0.18 | 92 | 1011.3 |
| 20260509024554 | 5 | 0 | 0.0 | 0.0 | 0.00 | 0.30 | 0.18 | 91 | 1011.3 |
| 20260509024045 | 5 | 0 | 0.0 | 0.0 | 0.00 | 0.30 | 0.18 | 91 | 1011.2 |
| 20260509023546 | 5 | 0 | 0.0 | 0.0 | 0.00 | 0.30 | 0.18 | 91 | 1011.4 |
| 20260509023051 | 5 | 0 | 0.0 | 0.0 | 0.00 | 0.30 | 0.18 | 90 | 1011.3 |
| 20260509022548 | 5 | 0 | 0.0 | 0.0 | 0.00 | 0.30 | 0.18 | 90 | 1011.1 |
| 20260509022048 | 5 | 0 | 0.0 | 0.0 | 0.00 | 0.30 | 0.18 | 90 | 1011.2 |
| 20260509021553 | 5 | 0 | 0.0 | 0.0 | 0.00 | 0.30 | 0.18 | 90 | 1011.2 |
| 20260509021050 | 5 | 0 | 0.0 | 0.0 | 0.00 | 0.30 | 0.18 | 89 | 1011.3 |
| 20260509020550 | 6 | 0 | 0.0 | 0.0 | 0.00 | 0.30 | 0.18 | 89 | 1011.4 |
| 20260509020055 | 6 | 0 | 0.0 | 0.0 | 0.00 | 0.30 | 0.18 | 90 | 1011.4 |
| 20260509015545 | 6 | 0 | 0.0 | 0.0 | 0.00 | 0.30 | 0.18 | 89 | 1011.3 |
| 20260509015045 | 6 | 0 | 0.0 | 0.0 | 0.00 | 0.30 | 0.18 | 89 | 1011.5 |
| 20260509014600 | 6 | 0 | 0.0 | 1.6 | 0.00 | 0.30 | 0.18 | 88 | 1011.1 |
| 20260509014047 | 7 | 0 | 0.0 | 1.6 | 0.00 | 0.30 | 0.18 | 89 | 1011.0 |
| 20260509013547 | 7 | 0 | 0.0 | 1.6 | 0.00 | 0.30 | 0.18 | 89 | 1010.9 |
| 20260509013055 | 7 | 0 | 0.0 | 1.6 | 0.00 | 0.30 | 0.18 | 89 | 1010.9 |
| 20260509012545 | 8 | 306 | 0.0 | 3.2 | 0.00 | 0.30 | 0.18 | 89 | 1010.9 |
| 20260509012048 | 8 | 0 | 0.0 | 3.2 | 0.00 | 0.30 | 0.18 | 90 | 1010.8 |
| 20260509011552 | 8 | 0 | 1.6 | 3.2 | 0.00 | 0.30 | 0.18 | 90 | 1010.9 |
| 20260509011050 | 7 | 326 | 0.0 | 1.6 | 0.00 | 0.30 | 0.18 | 90 | 1011.0 |
| 20260509010553 | 7 | 0 | 0.0 | 1.6 | 0.00 | 0.30 | 0.18 | 90 | 1010.9 |
| 20260509010054 | 8 | 0 | 0.0 | 1.6 | 0.00 | 0.30 | 0.18 | 90 | 1010.8 |
| 20260509005548 | 8 | 0 | 0.0 | 1.6 | 0.00 | 0.30 | 0.18 | 90 | 1010.7 |
| 20260509005045 | 8 | 0 | 0.0 | 0.0 | 0.00 | 0.30 | 0.18 | 89 | 1010.7 |
| 20260509004555 | 8 | 0 | 0.0 | 0.0 | 0.00 | 0.30 | 0.18 | 89 | 1010.7 |
| 20260509004044 | 8 | 0 | 0.0 | 0.0 | 0.03 | 0.30 | 0.18 | 89 | 1010.7 |
| 20260509003547 | 8 | 0 | 0.0 | 0.0 | 0.03 | 0.30 | 0.18 | 89 | 1010.7 |
| 20260509003053 | 8 | 0 | 0.0 | 0.0 | 0.03 | 0.30 | 0.18 | 89 | 1010.6 |
| 20260509002546 | 8 | 0 | 0.0 | 0.0 | 0.03 | 0.30 | 0.18 | 88 | 1010.5 |
| 20260509002045 | 8 | 0 | 0.0 | 1.6 | 0.03 | 0.30 | 0.18 | 88 | 1010.5 |
| 20260509001555 | 8 | 0 | 0.0 | 1.6 | 0.03 | 0.30 | 0.18 | 88 | 1010.4 |
| 20260509001046 | 8 | 0 | 0.0 | 1.6 | 0.03 | 0.30 | 0.18 | 87 | 1010.3 |
| 20260509000548 | 8 | 326 | 0.0 | 1.6 | 0.03 | 0.30 | 0.18 | 86 | 1010.3 |
| 20260509000056 | 8 | 0 | 0.0 | 0.0 | 0.03 | 0.30 | 0.18 | 85 | 1010.3 |
| 20260508235545 | 8 | 0 | 0.0 | 0.0 | 0.03 | 0.30 | 0.18 | 84 | 1010.4 |
| 20260508235044 | 9 | 0 | 0.0 | 0.0 | 0.03 | 0.30 | 0.18 | 83 | 1010.5 |
| 20260508234554 | 9 | 0 | 0.0 | 0.0 | 0.03 | 0.30 | 0.18 | 81 | 1010.5 |
| 20260508234044 | 9 | 0 | 0.0 | 0.0 | 0.00 | 0.28 | 0.15 | 80 | 1010.4 |
| 20260508233545 | 9 | 0 | 0.0 | 1.6 | 0.00 | 0.28 | 0.15 | 80 | 1010.4 |
| 20260508233106 | 9 | 0 | 0.0 | 1.6 | 0.00 | 0.28 | 0.15 | 80 | 1010.3 |
| 20260508232544 | 9 | 0 | 0.0 | 0.0 | 0.00 | 0.28 | 0.15 | 78 | 1010.3 |
| 20260508232044 | 9 | 326 | 0.0 | 1.6 | 0.00 | 0.28 | 0.15 | 78 | 1010.2 |
| 20260508231556 | 10 | 0 | 0.0 | 1.6 | 0.00 | 0.28 | 0.15 | 77 | 1010.1 |
| 20260508231049 | 10 | 0 | 0.0 | 3.2 | 0.00 | 0.28 | 0.15 | 76 | 1010.2 |
| 20260508230545 | 10 | 0 | 0.0 | 3.2 | 0.00 | 0.28 | 0.15 | 76 | 1010.1 |
| 20260508225545 | 10 | 345 | 1.6 | 6.4 | 0.00 | 0.28 | 0.15 | 75 | 1010.0 |
| 20260508225045 | 10 | 329 | 3.2 | 6.4 | 0.00 | 0.28 | 0.15 | 75 | 1010.0 |
| 20260508224552 | 10 | 328 | 1.6 | 6.4 | 0.00 | 0.28 | 0.15 | 74 | 1010.0 |
| 20260508224045 | 10 | 331 | 1.6 | 6.4 | 0.00 | 0.28 | 0.15 | 73 | 1010.0 |
| 20260508223551 | 10 | 6 | 0.0 | 4.8 | 0.00 | 0.28 | 0.15 | 73 | 1010.1 |
| 20260508223053 | 10 | 338 | 0.0 | 4.8 | 0.00 | 0.28 | 0.15 | 73 | 1010.1 |
| 20260508222544 | 10 | 353 | 0.0 | 1.6 | 0.00 | 0.28 | 0.15 | 73 | 1010.1 |
| 20260508222045 | 10 | 330 | 0.0 | 3.2 | 0.00 | 0.28 | 0.15 | 75 | 1010.2 |
| 20260508221552 | 10 | 345 | 0.0 | 3.2 | 0.00 | 0.28 | 0.15 | 75 | 1010.2 |
| 20260508221045 | 10 | 349 | 0.0 | 1.6 | 0.00 | 0.28 | 0.15 | 74 | 1010.3 |
| 20260508220544 | 10 | 0 | 0.0 | 0.0 | 0.00 | 0.28 | 0.15 | 74 | 1010.2 |
| 20260508220057 | 10 | 0 | 0.0 | 0.0 | 0.00 | 0.28 | 0.15 | 73 | 1010.4 |
| 20260508215547 | 10 | 0 | 0.0 | 0.0 | 0.00 | 0.28 | 0.15 | 74 | 1010.2 |
| 20260508215045 | 10 | 0 | 0.0 | 1.6 | 0.00 | 0.28 | 0.15 | 73 | 1010.2 |
| 20260508214559 | 10 | 0 | 0.0 | 1.6 | 0.00 | 0.28 | 0.15 | 74 | 1010.2 |
| 20260508214048 | 10 | 0 | 0.0 | 8.0 | 0.00 | 0.28 | 0.15 | 73 | 1010.2 |
| 20260508213545 | 10 | 271 | 0.0 | 8.0 | 0.00 | 0.28 | 0.15 | 73 | 1010.3 |